EDDT/TXL METAR and TAF weather

Enter ICAO airport designator
Station Type Date Time Source
EDDT METAR 2018/12/12 16:20 UTC NOAA

EDDT 121620Z 02003KT 340V050 CAVOK 03/01 Q1025 NOSIG


Station Type Date Time Source
EDDT Decoded METAR 2018/12/12 16:20 UTC NOAA

Berlin-Tegel, Germany (EDDT) 52-34N 013-19E 37M
Dec 12, 2018 - 11:20 AM EST / 2018.12.12 1620 UTC
Wind: from the NNE (020 degrees) at 3 MPH (3 KT) (direction variable):0
Visibility: greater than 7 mile(s):0
Temperature: 37 F (3 C)
Dew Point: 33 F (1 C)
Relative Humidity: 86%
Pressure (altimeter): 30.27 in. Hg (1025 hPa)
ob: EDDT 121620Z 02003KT 340V050 CAVOK 03/01 Q1025 NOSIG
cycle: 16

Station Type Date Time Source
EDDT TAF 2018/12/12 12:27 UTC NOAA

TAF EDDT 121100Z 1212/1312 04005KT 9999 SCT025 BKN040 PROB30
TEMPO 1212/1224 BKN008
BECMG 1300/1303 4000 BR SCT004 BKN006 PROB30
TEMPO 1300/1310 2500 -SN
TEMPO 1302/1310 BKN004


Example: see airport list